sensor_id;sensor_type;location;lat;lon;timestamp;pressure;altitude;pressure_sealevel;temperature;humidity
47670;BME280;33408;52.062;11.722;2022-09-21T00:00:23;102058.72;;;7.95;100.00
47670;BME280;33408;52.062;11.722;2022-09-21T00:02:50;102061.34;;;7.99;100.00
47670;BME280;33408;52.062;11.722;2022-09-21T00:05:17;102059.63;;;7.98;100.00
47670;BME280;33408;52.062;11.722;2022-09-21T00:07:43;102066.50;;;7.98;100.00
47670;BME280;33408;52.062;11.722;2022-09-21T00:10:10;102061.22;;;7.90;100.00
47670;BME280;33408;52.062;11.722;2022-09-21T00:12:36;102061.19;;;7.89;100.00
47670;BME280;33408;52.062;11.722;2022-09-21T00:15:05;102065.44;;;7.83;100.00
47670;BME280;33408;52.062;11.722;2022-09-21T00:17:33;102064.69;;;7.89;100.00
47670;BME280;33408;52.062;11.722;2022-09-21T00:20:00;102060.16;;;7.76;100.00
47670;BME280;33408;52.062;11.722;2022-09-21T00:22:29;102063.50;;;7.69;100.00
47670;BME280;33408;52.062;11.722;2022-09-21T00:24:55;102064.53;;;7.80;100.00
47670;BME280;33408;52.062;11.722;2022-09-21T00:27:22;102065.09;;;7.60;100.00
47670;BME280;33408;52.062;11.722;2022-09-21T00:29:54;102077.31;;;7.72;100.00
47670;BME280;33408;52.062;11.722;2022-09-21T00:32:20;102070.34;;;7.65;100.00
47670;BME280;33408;52.062;11.722;2022-09-21T00:34:50;102071.25;;;7.69;100.00
47670;BME280;33408;52.062;11.722;2022-09-21T00:37:17;102080.56;;;7.59;100.00
47670;BME280;33408;52.062;11.722;2022-09-21T00:39:44;102078.06;;;7.63;100.00
47670;BME280;33408;52.062;11.722;2022-09-21T00:42:13;102072.91;;;7.63;100.00
47670;BME280;33408;52.062;11.722;2022-09-21T00:44:42;102074.63;;;7.64;100.00
47670;BME280;33408;52.062;11.722;2022-09-21T00:47:12;102078.78;;;7.55;100.00
47670;BME280;33408;52.062;11.722;2022-09-21T00:49:40;102075.22;;;7.48;100.00
47670;BME280;33408;52.062;11.722;2022-09-21T00:52:10;102082.81;;;7.39;100.00
47670;BME280;33408;52.062;11.722;2022-09-21T00:54:43;102078.63;;;7.44;100.00
47670;BME280;33408;52.062;11.722;2022-09-21T00:57:11;102075.19;;;7.45;100.00
47670;BME280;33408;52.062;11.722;2022-09-21T00:59:40;102075.16;;;7.43;100.00
47670;BME280;33408;52.062;11.722;2022-09-21T01:02:08;102079.38;;;7.38;100.00
47670;BME280;33408;52.062;11.722;2022-09-21T01:04:34;102071.56;;;7.34;100.00
47670;BME280;33408;52.062;11.722;2022-09-21T01:07:03;102073.94;;;7.21;100.00
47670;BME280;33408;52.062;11.722;2022-09-21T01:09:33;102079.00;;;7.15;100.00
47670;BME280;33408;52.062;11.722;2022-09-21T01:12:07;102081.34;;;7.03;100.00
47670;BME280;33408;52.062;11.722;2022-09-21T01:14:46;102077.47;;;6.79;100.00
47670;BME280;33408;52.062;11.722;2022-09-21T01:17:23;102081.91;;;6.86;100.00
47670;BME280;33408;52.062;11.722;2022-09-21T01:20:07;102080.03;;;6.79;100.00
47670;BME280;33408;52.062;11.722;2022-09-21T01:22:53;102082.28;;;6.61;100.00
47670;BME280;33408;52.062;11.722;2022-09-21T01:25:33;102087.53;;;6.65;100.00
47670;BME280;33408;52.062;11.722;2022-09-21T01:28:13;102092.59;;;6.61;100.00
47670;BME280;33408;52.062;11.722;2022-09-21T01:30:48;102096.88;;;6.62;100.00
47670;BME280;33408;52.062;11.722;2022-09-21T01:33:22;102092.88;;;6.76;100.00
47670;BME280;33408;52.062;11.722;2022-09-21T01:35:55;102091.25;;;6.80;100.00
47670;BME280;33408;52.062;11.722;2022-09-21T01:38:25;102096.16;;;6.67;100.00
47670;BME280;33408;52.062;11.722;2022-09-21T01:40:57;102094.41;;;6.66;100.00
47670;BME280;33408;52.062;11.722;2022-09-21T01:43:31;102095.38;;;6.71;100.00
47670;BME280;33408;52.062;11.722;2022-09-21T01:46:02;102106.47;;;6.67;100.00
47670;BME280;33408;52.062;11.722;2022-09-21T01:48:32;102103.06;;;6.68;100.00
47670;BME280;33408;52.062;11.722;2022-09-21T01:51:02;102099.66;;;6.71;100.00
47670;BME280;33408;52.062;11.722;2022-09-21T01:53:33;102095.41;;;6.73;100.00
47670;BME280;33408;52.062;11.722;2022-09-21T01:56:05;102100.84;;;6.88;100.00
47670;BME280;33408;52.062;11.722;2022-09-21T01:58:35;102102.44;;;6.82;100.00
47670;BME280;33408;52.062;11.722;2022-09-21T02:01:08;102101.56;;;6.80;100.00
47670;BME280;33408;52.062;11.722;2022-09-21T02:03:39;102103.97;;;6.72;100.00
47670;BME280;33408;52.062;11.722;2022-09-21T02:06:07;102101.25;;;6.64;100.00
47670;BME280;33408;52.062;11.722;2022-09-21T02:08:35;102104.59;;;6.59;100.00
47670;BME280;33408;52.062;11.722;2022-09-21T02:11:02;102108.28;;;6.71;100.00
47670;BME280;33408;52.062;11.722;2022-09-21T02:13:31;102111.66;;;6.69;100.00
47670;BME280;33408;52.062;11.722;2022-09-21T02:16:15;102110.13;;;6.79;100.00
47670;BME280;33408;52.062;11.722;2022-09-21T02:18:52;102101.50;;;6.77;100.00
47670;BME280;33408;52.062;11.722;2022-09-21T02:21:30;102106.34;;;6.61;100.00
47670;BME280;33408;52.062;11.722;2022-09-21T02:24:02;102111.50;;;6.61;100.00
47670;BME280;33408;52.062;11.722;2022-09-21T02:26:33;102111.56;;;6.64;100.00
47670;BME280;33408;52.062;11.722;2022-09-21T02:29:07;102111.34;;;6.55;100.00
47670;BME280;33408;52.062;11.722;2022-09-21T02:31:41;102113.13;;;6.57;100.00
47670;BME280;33408;52.062;11.722;2022-09-21T02:34:16;102107.19;;;6.62;100.00
47670;BME280;33408;52.062;11.722;2022-09-21T02:36:46;102112.53;;;6.71;100.00
47670;BME280;33408;52.062;11.722;2022-09-21T02:39:16;102111.66;;;6.69;100.00
47670;BME280;33408;52.062;11.722;2022-09-21T02:41:51;102110.81;;;6.70;100.00
47670;BME280;33408;52.062;11.722;2022-09-21T02:44:24;102122.66;;;6.62;100.00
47670;BME280;33408;52.062;11.722;2022-09-21T02:47:03;102109.00;;;6.66;100.00
47670;BME280;33408;52.062;11.722;2022-09-21T02:49:34;102108.22;;;6.68;100.00
47670;BME280;33408;52.062;11.722;2022-09-21T02:52:06;102115.59;;;6.51;100.00
47670;BME280;33408;52.062;11.722;2022-09-21T02:54:35;102116.63;;;6.61;100.00
47670;BME280;33408;52.062;11.722;2022-09-21T02:57:03;102115.72;;;6.57;100.00
47670;BME280;33408;52.062;11.722;2022-09-21T02:59:30;102123.34;;;6.53;100.00
47670;BME280;33408;52.062;11.722;2022-09-21T03:01:58;102115.00;;;6.65;100.00
47670;BME280;33408;52.062;11.722;2022-09-21T03:04:25;102115.97;;;6.70;100.00
47670;BME280;33408;52.062;11.722;2022-09-21T03:06:52;102109.13;;;6.72;100.00
47670;BME280;33408;52.062;11.722;2022-09-21T03:09:21;102117.72;;;6.72;100.00
47670;BME280;33408;52.062;11.722;2022-09-21T03:11:48;102120.94;;;6.61;100.00
47670;BME280;33408;52.062;11.722;2022-09-21T03:14:15;102123.91;;;6.38;100.00
47670;BME280;33408;52.062;11.722;2022-09-21T03:16:42;102134.91;;;6.31;100.00
47670;BME280;33408;52.062;11.722;2022-09-21T03:19:10;102135.88;;;6.37;100.00
47670;BME280;33408;52.062;11.722;2022-09-21T03:21:37;102130.81;;;6.41;100.00
47670;BME280;33408;52.062;11.722;2022-09-21T03:24:04;102135.28;;;6.48;100.00
47670;BME280;33408;52.062;11.722;2022-09-21T03:26:31;102142.16;;;6.50;100.00
47670;BME280;33408;52.062;11.722;2022-09-21T03:28:57;102131.41;;;6.29;100.00
47670;BME280;33408;52.062;11.722;2022-09-21T03:31:25;102140.19;;;6.37;100.00
47670;BME280;33408;52.062;11.722;2022-09-21T03:33:51;102138.63;;;6.45;100.00
47670;BME280;33408;52.062;11.722;2022-09-21T03:36:19;102137.16;;;6.56;100.00
47670;BME280;33408;52.062;11.722;2022-09-21T03:38:46;102145.84;;;6.62;100.00
47670;BME280;33408;52.062;11.722;2022-09-21T03:41:12;102141.53;;;6.61;100.00
47670;BME280;33408;52.062;11.722;2022-09-21T03:43:39;102145.84;;;6.60;100.00
47670;BME280;33408;52.062;11.722;2022-09-21T03:46:05;102143.47;;;6.71;100.00
47670;BME280;33408;52.062;11.722;2022-09-21T03:48:32;102146.84;;;6.67;100.00
47670;BME280;33408;52.062;11.722;2022-09-21T03:50:59;102143.25;;;6.62;100.00
47670;BME280;33408;52.062;11.722;2022-09-21T03:53:26;102147.59;;;6.63;100.00
47670;BME280;33408;52.062;11.722;2022-09-21T03:55:53;102139.75;;;6.58;100.00
47670;BME280;33408;52.062;11.722;2022-09-21T03:58:19;102150.59;;;6.42;100.00
47670;BME280;33408;52.062;11.722;2022-09-21T04:00:46;102154.94;;;6.44;100.00
47670;BME280;33408;52.062;11.722;2022-09-21T04:03:12;102153.22;;;6.45;100.00
47670;BME280;33408;52.062;11.722;2022-09-21T04:05:39;102158.41;;;6.46;100.00
47670;BME280;33408;52.062;11.722;2022-09-21T04:08:05;102163.03;;;6.22;100.00
47670;BME280;33408;52.062;11.722;2022-09-21T04:10:33;102152.19;;;6.36;100.00
47670;BME280;33408;52.062;11.722;2022-09-21T04:13:01;102150.34;;;6.31;100.00
47670;BME280;33408;52.062;11.722;2022-09-21T04:15:28;102151.97;;;6.26;100.00
47670;BME280;33408;52.062;11.722;2022-09-21T04:17:55;102157.00;;;6.21;100.00
47670;BME280;33408;52.062;11.722;2022-09-21T04:20:22;102157.69;;;6.12;100.00
47670;BME280;33408;52.062;11.722;2022-09-21T04:22:49;102155.81;;;6.07;100.00
47670;BME280;33408;52.062;11.722;2022-09-21T04:25:17;102153.09;;;6.00;100.00
47670;BME280;33408;52.062;11.722;2022-09-21T04:27:44;102156.56;;;6.01;100.00
47670;BME280;33408;52.062;11.722;2022-09-21T04:30:12;102155.66;;;5.99;100.00
47670;BME280;33408;52.062;11.722;2022-09-21T04:32:39;102154.78;;;5.98;100.00
47670;BME280;33408;52.062;11.722;2022-09-21T04:35:06;102159.94;;;6.00;100.00
47670;BME280;33408;52.062;11.722;2022-09-21T04:37:33;102156.53;;;5.99;100.00
47670;BME280;33408;52.062;11.722;2022-09-21T04:40:00;102159.34;;;6.10;100.00
47670;BME280;33408;52.062;11.722;2022-09-21T04:42:27;102151.00;;;6.20;100.00
47670;BME280;33408;52.062;11.722;2022-09-21T04:44:55;102151.06;;;6.24;100.00
47670;BME280;33408;52.062;11.722;2022-09-21T04:47:21;102149.13;;;6.15;100.00
47670;BME280;33408;52.062;11.722;2022-09-21T04:49:49;102154.25;;;6.13;100.00
47670;BME280;33408;52.062;11.722;2022-09-21T04:52:16;102159.41;;;6.13;100.00
47670;BME280;33408;52.062;11.722;2022-09-21T04:54:43;102155.22;;;6.17;100.00
47670;BME280;33408;52.062;11.722;2022-09-21T04:57:09;102157.84;;;6.20;100.00
47670;BME280;33408;52.062;11.722;2022-09-21T04:59:35;102158.75;;;6.22;100.00
47670;BME280;33408;52.062;11.722;2022-09-21T05:02:03;102162.03;;;6.16;100.00
47670;BME280;33408;52.062;11.722;2022-09-21T05:04:30;102168.69;;;6.07;100.00
47670;BME280;33408;52.062;11.722;2022-09-21T05:06:56;102166.88;;;6.02;100.00
47670;BME280;33408;52.062;11.722;2022-09-21T05:09:23;102171.00;;;5.96;100.00
47670;BME280;33408;52.062;11.722;2022-09-21T05:12:07;102168.03;;;6.15;100.00
47670;BME280;33408;52.062;11.722;2022-09-21T05:14:34;102171.78;;;6.28;100.00
47670;BME280;33408;52.062;11.722;2022-09-21T05:17:00;102171.72;;;6.27;100.00
47670;BME280;33408;52.062;11.722;2022-09-21T05:19:28;102168.44;;;6.34;100.00
47670;BME280;33408;52.062;11.722;2022-09-21T05:21:55;102175.41;;;6.38;100.00
47670;BME280;33408;52.062;11.722;2022-09-21T05:24:21;102179.81;;;6.44;100.00
47670;BME280;33408;52.062;11.722;2022-09-21T05:26:48;102178.19;;;6.47;100.00
47670;BME280;33408;52.062;11.722;2022-09-21T05:29:15;102182.06;;;6.28;100.00
47670;BME280;33408;52.062;11.722;2022-09-21T05:31:45;102180.13;;;6.19;100.00
47670;BME280;33408;52.062;11.722;2022-09-21T05:34:32;102189.53;;;6.17;100.00
47670;BME280;33408;52.062;11.722;2022-09-21T05:37:03;102192.25;;;6.24;100.00
47670;BME280;33408;52.062;11.722;2022-09-21T05:39:32;102196.03;;;6.38;100.00
47670;BME280;33408;52.062;11.722;2022-09-21T05:41:59;102201.28;;;6.43;100.00
47670;BME280;33408;52.062;11.722;2022-09-21T05:44:26;102196.94;;;6.42;100.00
47670;BME280;33408;52.062;11.722;2022-09-21T05:46:58;102197.44;;;6.65;100.00
47670;BME280;33408;52.062;11.722;2022-09-21T05:49:37;102195.31;;;6.85;100.00
47670;BME280;33408;52.062;11.722;2022-09-21T05:52:15;102197.50;;;7.09;100.00
47670;BME280;33408;52.062;11.722;2022-09-21T05:54:53;102197.75;;;7.23;100.00
47670;BME280;33408;52.062;11.722;2022-09-21T05:57:29;102201.22;;;7.23;100.00
47670;BME280;33408;52.062;11.722;2022-09-21T06:00:05;102207.53;;;7.39;100.00
47670;BME280;33408;52.062;11.722;2022-09-21T06:02:49;102202.72;;;7.59;100.00
47670;BME280;33408;52.062;11.722;2022-09-21T06:05:21;102203.59;;;7.61;100.00
47670;BME280;33408;52.062;11.722;2022-09-21T06:07:47;102212.59;;;7.83;100.00
47670;BME280;33408;52.062;11.722;2022-09-21T06:10:15;102208.41;;;7.92;100.00
47670;BME280;33408;52.062;11.722;2022-09-21T06:12:41;102209.50;;;8.06;100.00
47670;BME280;33408;52.062;11.722;2022-09-21T06:15:11;102217.41;;;8.15;100.00
47670;BME280;33408;52.062;11.722;2022-09-21T06:17:38;102214.38;;;8.43;100.00
47670;BME280;33408;52.062;11.722;2022-09-21T06:20:06;102207.75;;;8.58;100.00
47670;BME280;33408;52.062;11.722;2022-09-21T06:22:34;102207.91;;;8.72;100.00
47670;BME280;33408;52.062;11.722;2022-09-21T06:25:00;102218.31;;;8.79;100.00
47670;BME280;33408;52.062;11.722;2022-09-21T06:27:28;102205.59;;;8.94;100.00
47670;BME280;33408;52.062;11.722;2022-09-21T06:29:54;102216.81;;;8.94;100.00
47670;BME280;33408;52.062;11.722;2022-09-21T06:32:21;102213.50;;;9.06;100.00
47670;BME280;33408;52.062;11.722;2022-09-21T06:34:47;102216.16;;;9.14;100.00
47670;BME280;33408;52.062;11.722;2022-09-21T06:37:14;102217.13;;;9.24;100.00
47670;BME280;33408;52.062;11.722;2022-09-21T06:39:42;102217.94;;;9.18;100.00
47670;BME280;33408;52.062;11.722;2022-09-21T06:42:08;102217.09;;;9.18;100.00
47670;BME280;33408;52.062;11.722;2022-09-21T06:44:35;102212.88;;;9.30;100.00
47670;BME280;33408;52.062;11.722;2022-09-21T06:47:01;102217.44;;;9.50;100.00
47670;BME280;33408;52.062;11.722;2022-09-21T06:49:28;102217.53;;;9.64;100.00
47670;BME280;33408;52.062;11.722;2022-09-21T06:51:54;102216.94;;;9.93;100.00
47670;BME280;33408;52.062;11.722;2022-09-21T06:54:21;102214.22;;;9.80;100.00
47670;BME280;33408;52.062;11.722;2022-09-21T06:56:50;102210.91;;;9.94;100.00
47670;BME280;33408;52.062;11.722;2022-09-21T06:59:16;102223.94;;;10.01;100.00
47670;BME280;33408;52.062;11.722;2022-09-21T07:01:43;102224.00;;;10.12;100.00
47670;BME280;33408;52.062;11.722;2022-09-21T07:04:09;102224.91;;;10.16;100.00
47670;BME280;33408;52.062;11.722;2022-09-21T07:06:35;102232.53;;;10.00;100.00
47670;BME280;33408;52.062;11.722;2022-09-21T07:09:02;102227.56;;;10.30;100.00
47670;BME280;33408;52.062;11.722;2022-09-21T07:11:29;102232.09;;;10.58;100.00
47670;BME280;33408;52.062;11.722;2022-09-21T07:14:00;102239.81;;;10.46;100.00
47670;BME280;33408;52.062;11.722;2022-09-21T07:16:28;102237.38;;;10.79;100.00
47670;BME280;33408;52.062;11.722;2022-09-21T07:18:55;102228.78;;;10.83;100.00
47670;BME280;33408;52.062;11.722;2022-09-21T07:21:21;102234.78;;;10.80;100.00
47670;BME280;33408;52.062;11.722;2022-09-21T07:23:48;102237.44;;;10.86;100.00
47670;BME280;33408;52.062;11.722;2022-09-21T07:26:14;102242.72;;;11.06;100.00
47670;BME280;33408;52.062;11.722;2022-09-21T07:28:41;102235.84;;;11.30;100.00
47670;BME280;33408;52.062;11.722;2022-09-21T07:31:11;102228.97;;;11.34;100.00
47670;BME280;33408;52.062;11.722;2022-09-21T07:33:39;102230.66;;;11.33;100.00
47670;BME280;33408;52.062;11.722;2022-09-21T07:36:06;102239.34;;;11.46;100.00
47670;BME280;33408;52.062;11.722;2022-09-21T07:38:35;102240.25;;;11.62;100.00
47670;BME280;33408;52.062;11.722;2022-09-21T07:41:02;102237.63;;;11.56;100.00
47670;BME280;33408;52.062;11.722;2022-09-21T07:43:29;102234.22;;;11.84;100.00
47670;BME280;33408;52.062;11.722;2022-09-21T07:45:56;102235.94;;;11.82;100.00
47670;BME280;33408;52.062;11.722;2022-09-21T07:48:24;102240.31;;;12.03;100.00
47670;BME280;33408;52.062;11.722;2022-09-21T07:50:51;102233.31;;;12.44;100.00
47670;BME280;33408;52.062;11.722;2022-09-21T07:53:17;102242.00;;;12.42;100.00
47670;BME280;33408;52.062;11.722;2022-09-21T07:55:44;102251.56;;;12.32;100.00
47670;BME280;33408;52.062;11.722;2022-09-21T07:58:10;102250.69;;;12.31;100.00
47670;BME280;33408;52.062;11.722;2022-09-21T08:00:54;102248.94;;;12.41;100.00
47670;BME280;33408;52.062;11.722;2022-09-21T08:03:21;102244.63;;;12.40;100.00
47670;BME280;33408;52.062;11.722;2022-09-21T08:05:48;102242.03;;;12.20;100.00
47670;BME280;33408;52.062;11.722;2022-09-21T08:08:15;102240.25;;;12.51;100.00
47670;BME280;33408;52.062;11.722;2022-09-21T08:10:41;102241.13;;;12.43;100.00
47670;BME280;33408;52.062;11.722;2022-09-21T08:13:08;102242.88;;;12.44;100.00
47670;BME280;33408;52.062;11.722;2022-09-21T08:15:34;102242.75;;;12.87;100.00
47670;BME280;33408;52.062;11.722;2022-09-21T08:18:03;102242.72;;;12.96;100.00
47670;BME280;33408;52.062;11.722;2022-09-21T08:20:29;102233.97;;;13.09;100.00
47670;BME280;33408;52.062;11.722;2022-09-21T08:22:57;102235.69;;;13.12;100.00
47670;BME280;33408;52.062;11.722;2022-09-21T08:25:24;102235.66;;;13.17;100.00
47670;BME280;33408;52.062;11.722;2022-09-21T08:27:56;102239.16;;;13.16;100.00
47670;BME280;33408;52.062;11.722;2022-09-21T08:30:22;102245.19;;;13.22;100.00
47670;BME280;33408;52.062;11.722;2022-09-21T08:32:53;102240.00;;;13.16;100.00
47670;BME280;33408;52.062;11.722;2022-09-21T08:35:19;102238.97;;;13.54;100.00
47670;BME280;33408;52.062;11.722;2022-09-21T08:37:46;102242.56;;;13.27;100.00
47670;BME280;33408;52.062;11.722;2022-09-21T08:40:17;102237.75;;;13.97;100.00
47670;BME280;33408;52.062;11.722;2022-09-21T08:42:51;102231.78;;;13.85;100.00
47670;BME280;33408;52.062;11.722;2022-09-21T08:45:21;102242.00;;;14.09;100.00
47670;BME280;33408;52.062;11.722;2022-09-21T08:47:52;102237.00;;;13.84;100.00
47670;BME280;33408;52.062;11.722;2022-09-21T08:50:29;102231.88;;;13.72;100.00
47670;BME280;33408;52.062;11.722;2022-09-21T08:53:01;102232.56;;;13.94;100.00
47670;BME280;33408;52.062;11.722;2022-09-21T08:55:30;102244.59;;;14.09;100.00
47670;BME280;33408;52.062;11.722;2022-09-21T08:57:57;102234.22;;;14.07;100.00
47670;BME280;33408;52.062;11.722;2022-09-21T09:00:24;102241.25;;;13.96;100.00
47670;BME280;33408;52.062;11.722;2022-09-21T09:03:20;102242.47;;;14.52;100.00
47670;BME280;33408;52.062;11.722;2022-09-21T09:05:54;102239.19;;;14.32;100.00
47670;BME280;33408;52.062;11.722;2022-09-21T09:08:39;102248.81;;;14.28;100.00
47670;BME280;33408;52.062;11.722;2022-09-21T09:11:23;102240.34;;;14.88;100.00
47670;BME280;33408;52.062;11.722;2022-09-21T09:16:55;102246.44;;;14.86;100.00
47670;BME280;33408;52.062;11.722;2022-09-21T09:19:26;102239.34;;;14.97;100.00
47670;BME280;33408;52.062;11.722;2022-09-21T09:21:55;102246.22;;;15.06;100.00
47670;BME280;33408;52.062;11.722;2022-09-21T09:24:31;102239.97;;;15.16;100.00
47670;BME280;33408;52.062;11.722;2022-09-21T09:27:02;102237.88;;;14.74;100.00
47670;BME280;33408;52.062;11.722;2022-09-21T09:29:34;102231.25;;;15.17;100.00
47670;BME280;33408;52.062;11.722;2022-09-21T09:32:05;102236.44;;;15.20;100.00
47670;BME280;33408;52.062;11.722;2022-09-21T09:34:39;102244.06;;;14.67;100.00
47670;BME280;33408;52.062;11.722;2022-09-21T09:37:10;102245.09;;;14.49;100.00
47670;BME280;33408;52.062;11.722;2022-09-21T09:39:37;102247.81;;;14.38;100.00
47670;BME280;33408;52.062;11.722;2022-09-21T09:42:19;102242.66;;;14.31;100.00
47670;BME280;33408;52.062;11.722;2022-09-21T09:44:54;102239.22;;;15.08;100.00
47670;BME280;33408;52.062;11.722;2022-09-21T09:47:32;102241.00;;;15.66;98.31
47670;BME280;33408;52.062;11.722;2022-09-21T09:50:08;102231.78;;;15.42;96.85
47670;BME280;33408;52.062;11.722;2022-09-21T09:52:35;102235.63;;;15.77;95.88
47670;BME280;33408;52.062;11.722;2022-09-21T09:55:13;102238.22;;;15.79;95.21
47670;BME280;33408;52.062;11.722;2022-09-21T09:57:42;102239.22;;;15.08;92.42
47670;BME280;33408;52.062;11.722;2022-09-21T10:00:12;102232.44;;;14.93;94.05
47670;BME280;33408;52.062;11.722;2022-09-21T10:02:46;102235.09;;;14.91;96.72
47670;BME280;33408;52.062;11.722;2022-09-21T10:05:20;102233.34;;;14.89;96.09
47670;BME280;33408;52.062;11.722;2022-09-21T10:07:47;102233.16;;;15.06;98.98
47670;BME280;33408;52.062;11.722;2022-09-21T10:10:39;102237.72;;;14.90;95.32
47670;BME280;33408;52.062;11.722;2022-09-21T10:13:13;102222.38;;;15.29;95.03
47670;BME280;33408;52.062;11.722;2022-09-21T10:15:44;102223.44;;;15.78;91.15
47670;BME280;33408;52.062;11.722;2022-09-21T10:18:18;102223.69;;;16.14;85.28
47670;BME280;33408;52.062;11.722;2022-09-21T10:20:54;102219.31;;;16.13;85.63
47670;BME280;33408;52.062;11.722;2022-09-21T10:23:22;102223.69;;;16.14;85.50
47670;BME280;33408;52.062;11.722;2022-09-21T10:25:53;102223.03;;;15.45;88.00
47670;BME280;33408;52.062;11.722;2022-09-21T10:28:22;102223.16;;;15.93;89.11
47670;BME280;33408;52.062;11.722;2022-09-21T10:30:49;102228.69;;;15.14;90.51
47670;BME280;33408;52.062;11.722;2022-09-21T10:33:45;102217.50;;;15.06;88.22
47670;BME280;33408;52.062;11.722;2022-09-21T10:36:25;102209.81;;;15.54;85.00
47670;BME280;33408;52.062;11.722;2022-09-21T10:38:52;102212.31;;;15.62;80.54
47670;BME280;33408;52.062;11.722;2022-09-21T10:41:18;102213.56;;;15.94;80.07
47670;BME280;33408;52.062;11.722;2022-09-21T10:43:47;102209.09;;;16.49;77.25
47670;BME280;33408;52.062;11.722;2022-09-21T10:46:15;102205.09;;;17.15;74.58
47670;BME280;33408;52.062;11.722;2022-09-21T10:48:43;102198.66;;;16.91;67.59
47670;BME280;33408;52.062;11.722;2022-09-21T10:51:20;102202.25;;;16.84;65.86
47670;BME280;33408;52.062;11.722;2022-09-21T10:53:51;102215.47;;;16.32;68.12
47670;BME280;33408;52.062;11.722;2022-09-21T10:56:17;102208.00;;;16.12;71.57
47670;BME280;33408;52.062;11.722;2022-09-21T10:59:09;102212.19;;;15.69;73.82
47670;BME280;33408;52.062;11.722;2022-09-21T11:01:42;102201.91;;;15.59;72.70
47670;BME280;33408;52.062;11.722;2022-09-21T11:04:14;102207.88;;;15.67;76.44
47670;BME280;33408;52.062;11.722;2022-09-21T11:06:43;102192.88;;;15.81;73.94
47670;BME280;33408;52.062;11.722;2022-09-21T11:09:15;102196.81;;;16.51;70.90
47670;BME280;33408;52.062;11.722;2022-09-21T11:11:47;102183.47;;;17.07;66.85
47670;BME280;33408;52.062;11.722;2022-09-21T11:14:23;102188.19;;;17.28;65.39
47670;BME280;33408;52.062;11.722;2022-09-21T11:16:55;102189.22;;;17.95;65.65
47670;BME280;33408;52.062;11.722;2022-09-21T11:19:32;102191.06;;;17.91;67.54
47670;BME280;33408;52.062;11.722;2022-09-21T11:22:05;102186.25;;;17.37;65.89
47670;BME280;33408;52.062;11.722;2022-09-21T11:24:38;102198.13;;;16.72;66.51
47670;BME280;33408;52.062;11.722;2022-09-21T11:27:09;102189.09;;;16.45;66.96
47670;BME280;33408;52.062;11.722;2022-09-21T11:29:48;102191.31;;;16.18;69.13
47670;BME280;33408;52.062;11.722;2022-09-21T11:32:43;102185.88;;;16.30;67.72
47670;BME280;33408;52.062;11.722;2022-09-21T11:35:23;102178.28;;;16.16;65.97
47670;BME280;33408;52.062;11.722;2022-09-21T11:38:04;102179.94;;;16.22;69.71
47670;BME280;33408;52.062;11.722;2022-09-21T11:40:47;102171.88;;;16.75;66.11
47670;BME280;33408;52.062;11.722;2022-09-21T11:43:27;102166.50;;;17.22;63.87
47670;BME280;33408;52.062;11.722;2022-09-21T11:46:04;102175.50;;;17.11;62.02
47670;BME280;33408;52.062;11.722;2022-09-21T11:48:45;102172.97;;;17.07;62.71
47670;BME280;33408;52.062;11.722;2022-09-21T11:51:30;102169.59;;;16.58;62.96
47670;BME280;33408;52.062;11.722;2022-09-21T11:54:21;102171.53;;;16.50;63.34
47670;BME280;33408;52.062;11.722;2022-09-21T11:56:55;102172.22;;;16.58;65.09
47670;BME280;33408;52.062;11.722;2022-09-21T11:59:35;102159.69;;;17.14;65.18
47670;BME280;33408;52.062;11.722;2022-09-21T12:02:21;102158.88;;;17.50;65.39
47670;BME280;33408;52.062;11.722;2022-09-21T12:04:54;102162.84;;;17.29;65.02
47670;BME280;33408;52.062;11.722;2022-09-21T12:07:38;102157.94;;;17.51;64.47
47670;BME280;33408;52.062;11.722;2022-09-21T12:10:20;102166.50;;;17.58;64.35
47670;BME280;33408;52.062;11.722;2022-09-21T12:12:55;102157.50;;;17.34;66.44
47670;BME280;33408;52.062;11.722;2022-09-21T12:15:27;102161.06;;;16.50;67.89
47670;BME280;33408;52.062;11.722;2022-09-21T12:18:02;102169.63;;;16.13;70.62
47670;BME280;33408;52.062;11.722;2022-09-21T12:20:39;102157.50;;;16.09;73.44
47670;BME280;33408;52.062;11.722;2022-09-21T12:23:13;102163.88;;;16.40;73.91
47670;BME280;33408;52.062;11.722;2022-09-21T12:25:45;102160.09;;;16.98;72.00
47670;BME280;33408;52.062;11.722;2022-09-21T12:28:19;102151.03;;;17.11;63.10
47670;BME280;33408;52.062;11.722;2022-09-21T12:30:51;102151.94;;;17.47;64.43
47670;BME280;33408;52.062;11.722;2022-09-21T12:33:24;102140.16;;;17.28;61.73
47670;BME280;33408;52.062;11.722;2022-09-21T12:36:01;102142.25;;;17.49;58.72
47670;BME280;33408;52.062;11.722;2022-09-21T12:38:32;102137.22;;;17.40;56.35
47670;BME280;33408;52.062;11.722;2022-09-21T12:41:04;102138.16;;;17.39;54.84
47670;BME280;33408;52.062;11.722;2022-09-21T12:43:38;102143.44;;;17.72;53.97
47670;BME280;33408;52.062;11.722;2022-09-21T12:46:09;102151.69;;;17.93;52.21
47670;BME280;33408;52.062;11.722;2022-09-21T12:48:39;102145.19;;;18.06;53.40
47670;BME280;33408;52.062;11.722;2022-09-21T12:51:12;102148.56;;;18.11;53.69
47670;BME280;33408;52.062;11.722;2022-09-21T12:53:42;102141.78;;;17.70;53.59
47670;BME280;33408;52.062;11.722;2022-09-21T12:56:17;102145.25;;;17.70;53.16
47670;BME280;33408;52.062;11.722;2022-09-21T12:58:52;102140.66;;;17.78;52.63